sensor_id;sensor_type;location;lat;lon;timestamp;P1;durP1;ratioP1;P2;durP2;ratioP2
77520;SDS011;66633;47.628;19.158;2023-01-09T00:00:16;17.15;;;9.77;;
77520;SDS011;66633;47.628;19.158;2023-01-09T00:02:43;18.00;;;10.27;;
77520;SDS011;66633;47.628;19.158;2023-01-09T00:05:10;17.05;;;9.80;;
77520;SDS011;66633;47.628;19.158;2023-01-09T00:07:37;16.88;;;9.75;;
77520;SDS011;66633;47.628;19.158;2023-01-09T00:10:03;17.60;;;10.35;;
77520;SDS011;66633;47.628;19.158;2023-01-09T00:12:29;15.90;;;9.45;;
77520;SDS011;66633;47.628;19.158;2023-01-09T00:14:54;16.20;;;9.77;;
77520;SDS011;66633;47.628;19.158;2023-01-09T00:17:20;17.52;;;9.32;;
77520;SDS011;66633;47.628;19.158;2023-01-09T00:19:45;15.73;;;8.88;;
77520;SDS011;66633;47.628;19.158;2023-01-09T00:22:11;19.27;;;10.00;;
77520;SDS011;66633;47.628;19.158;2023-01-09T00:24:36;18.70;;;10.48;;
77520;SDS011;66633;47.628;19.158;2023-01-09T00:27:01;19.20;;;9.45;;
77520;SDS011;66633;47.628;19.158;2023-01-09T00:29:27;16.95;;;9.65;;
77520;SDS011;66633;47.628;19.158;2023-01-09T00:31:53;16.55;;;10.00;;
77520;SDS011;66633;47.628;19.158;2023-01-09T00:34:18;18.45;;;9.88;;
77520;SDS011;66633;47.628;19.158;2023-01-09T00:36:43;17.45;;;10.52;;
77520;SDS011;66633;47.628;19.158;2023-01-09T00:39:09;17.40;;;8.90;;
77520;SDS011;66633;47.628;19.158;2023-01-09T00:41:36;14.95;;;8.25;;
77520;SDS011;66633;47.628;19.158;2023-01-09T00:44:08;17.23;;;9.40;;
77520;SDS011;66633;47.628;19.158;2023-01-09T00:46:38;16.23;;;8.43;;
77520;SDS011;66633;47.628;19.158;2023-01-09T00:49:06;14.30;;;7.78;;
77520;SDS011;66633;47.628;19.158;2023-01-09T00:51:33;12.10;;;6.78;;
77520;SDS011;66633;47.628;19.158;2023-01-09T00:53:58;12.55;;;7.30;;
77520;SDS011;66633;47.628;19.158;2023-01-09T00:56:26;14.00;;;7.68;;
77520;SDS011;66633;47.628;19.158;2023-01-09T00:58:52;12.70;;;6.47;;
77520;SDS011;66633;47.628;19.158;2023-01-09T01:01:18;15.73;;;7.97;;
77520;SDS011;66633;47.628;19.158;2023-01-09T01:03:43;12.18;;;6.50;;
77520;SDS011;66633;47.628;19.158;2023-01-09T01:06:09;13.70;;;7.60;;
77520;SDS011;66633;47.628;19.158;2023-01-09T01:08:53;14.73;;;8.20;;
77520;SDS011;66633;47.628;19.158;2023-01-09T01:11:20;13.13;;;7.72;;
77520;SDS011;66633;47.628;19.158;2023-01-09T01:13:45;12.75;;;6.63;;
77520;SDS011;66633;47.628;19.158;2023-01-09T01:16:11;14.48;;;7.40;;
77520;SDS011;66633;47.628;19.158;2023-01-09T01:18:37;13.80;;;7.50;;
77520;SDS011;66633;47.628;19.158;2023-01-09T01:21:07;14.05;;;7.65;;
77520;SDS011;66633;47.628;19.158;2023-01-09T01:23:35;11.98;;;6.63;;
77520;SDS011;66633;47.628;19.158;2023-01-09T01:26:05;11.60;;;6.55;;
77520;SDS011;66633;47.628;19.158;2023-01-09T01:28:41;13.52;;;7.45;;
77520;SDS011;66633;47.628;19.158;2023-01-09T01:31:07;13.05;;;6.88;;
77520;SDS011;66633;47.628;19.158;2023-01-09T01:33:33;13.43;;;6.65;;
77520;SDS011;66633;47.628;19.158;2023-01-09T01:36:03;13.52;;;7.57;;
77520;SDS011;66633;47.628;19.158;2023-01-09T01:38:31;13.48;;;8.02;;
77520;SDS011;66633;47.628;19.158;2023-01-09T01:40:56;14.27;;;7.63;;
77520;SDS011;66633;47.628;19.158;2023-01-09T01:43:23;13.82;;;7.18;;
77520;SDS011;66633;47.628;19.158;2023-01-09T01:45:48;12.52;;;6.75;;
77520;SDS011;66633;47.628;19.158;2023-01-09T01:48:16;12.27;;;6.57;;
77520;SDS011;66633;47.628;19.158;2023-01-09T01:50:50;13.27;;;6.50;;
77520;SDS011;66633;47.628;19.158;2023-01-09T01:53:28;13.00;;;6.93;;
77520;SDS011;66633;47.628;19.158;2023-01-09T02:01:46;11.65;;;6.10;;
77520;SDS011;66633;47.628;19.158;2023-01-09T02:04:14;13.93;;;6.65;;
77520;SDS011;66633;47.628;19.158;2023-01-09T02:06:40;12.32;;;5.90;;
77520;SDS011;66633;47.628;19.158;2023-01-09T02:09:08;11.10;;;5.72;;
77520;SDS011;66633;47.628;19.158;2023-01-09T02:11:42;9.75;;;5.53;;
77520;SDS011;66633;47.628;19.158;2023-01-09T02:14:09;11.88;;;5.97;;
77520;SDS011;66633;47.628;19.158;2023-01-09T02:31:06;10.73;;;5.43;;
77520;SDS011;66633;47.628;19.158;2023-01-09T02:39:25;11.40;;;5.97;;
77520;SDS011;66633;47.628;19.158;2023-01-09T02:41:52;10.50;;;5.85;;
77520;SDS011;66633;47.628;19.158;2023-01-09T02:44:25;9.93;;;5.57;;
77520;SDS011;66633;47.628;19.158;2023-01-09T02:50:03;10.82;;;5.18;;
77520;SDS011;66633;47.628;19.158;2023-01-09T03:00:48;11.07;;;5.72;;
77520;SDS011;66633;47.628;19.158;2023-01-09T03:03:33;12.95;;;6.18;;
77520;SDS011;66633;47.628;19.158;2023-01-09T03:06:18;12.40;;;6.10;;
77520;SDS011;66633;47.628;19.158;2023-01-09T03:09:07;12.20;;;6.90;;
77520;SDS011;66633;47.628;19.158;2023-01-09T03:11:42;12.02;;;6.40;;
77520;SDS011;66633;47.628;19.158;2023-01-09T03:14:13;11.93;;;6.60;;
77520;SDS011;66633;47.628;19.158;2023-01-09T03:16:44;13.15;;;6.47;;
77520;SDS011;66633;47.628;19.158;2023-01-09T03:19:18;12.90;;;6.55;;
77520;SDS011;66633;47.628;19.158;2023-01-09T03:21:47;12.00;;;6.88;;
77520;SDS011;66633;47.628;19.158;2023-01-09T03:24:14;13.77;;;6.75;;
77520;SDS011;66633;47.628;19.158;2023-01-09T03:26:40;14.02;;;6.25;;
77520;SDS011;66633;47.628;19.158;2023-01-09T03:29:06;10.85;;;5.15;;
77520;SDS011;66633;47.628;19.158;2023-01-09T03:31:31;12.70;;;5.72;;
77520;SDS011;66633;47.628;19.158;2023-01-09T03:33:56;10.15;;;5.40;;
77520;SDS011;66633;47.628;19.158;2023-01-09T03:36:22;8.43;;;4.35;;
77520;SDS011;66633;47.628;19.158;2023-01-09T03:38:49;9.68;;;4.88;;
77520;SDS011;66633;47.628;19.158;2023-01-09T03:41:15;8.82;;;4.53;;
77520;SDS011;66633;47.628;19.158;2023-01-09T03:43:41;10.45;;;5.53;;
77520;SDS011;66633;47.628;19.158;2023-01-09T03:46:07;10.77;;;5.80;;
77520;SDS011;66633;47.628;19.158;2023-01-09T03:48:32;11.40;;;5.32;;
77520;SDS011;66633;47.628;19.158;2023-01-09T03:50:57;13.90;;;6.75;;
77520;SDS011;66633;47.628;19.158;2023-01-09T03:53:23;13.85;;;6.55;;
77520;SDS011;66633;47.628;19.158;2023-01-09T03:55:51;17.85;;;9.52;;
77520;SDS011;66633;47.628;19.158;2023-01-09T03:58:18;16.38;;;8.60;;
77520;SDS011;66633;47.628;19.158;2023-01-09T04:00:45;15.60;;;8.48;;
77520;SDS011;66633;47.628;19.158;2023-01-09T04:03:12;14.02;;;7.38;;
77520;SDS011;66633;47.628;19.158;2023-01-09T04:05:39;12.63;;;7.30;;
77520;SDS011;66633;47.628;19.158;2023-01-09T04:08:05;11.85;;;6.50;;
77520;SDS011;66633;47.628;19.158;2023-01-09T04:10:31;11.70;;;6.32;;
77520;SDS011;66633;47.628;19.158;2023-01-09T04:12:57;11.48;;;6.28;;
77520;SDS011;66633;47.628;19.158;2023-01-09T04:15:23;12.68;;;7.45;;
77520;SDS011;66633;47.628;19.158;2023-01-09T04:17:48;12.82;;;6.72;;
77520;SDS011;66633;47.628;19.158;2023-01-09T04:20:14;11.52;;;5.93;;
77520;SDS011;66633;47.628;19.158;2023-01-09T04:22:40;18.15;;;7.43;;
77520;SDS011;66633;47.628;19.158;2023-01-09T04:25:06;15.55;;;7.65;;
77520;SDS011;66633;47.628;19.158;2023-01-09T04:27:31;12.45;;;6.10;;
77520;SDS011;66633;47.628;19.158;2023-01-09T04:29:57;14.55;;;6.60;;
77520;SDS011;66633;47.628;19.158;2023-01-09T04:32:22;10.88;;;5.60;;
77520;SDS011;66633;47.628;19.158;2023-01-09T04:34:48;11.77;;;5.40;;
77520;SDS011;66633;47.628;19.158;2023-01-09T04:37:13;10.32;;;5.25;;
77520;SDS011;66633;47.628;19.158;2023-01-09T04:39:39;11.98;;;6.57;;
77520;SDS011;66633;47.628;19.158;2023-01-09T04:42:08;10.55;;;5.07;;
77520;SDS011;66633;47.628;19.158;2023-01-09T04:44:34;9.80;;;5.30;;
77520;SDS011;66633;47.628;19.158;2023-01-09T04:46:59;10.20;;;4.53;;
77520;SDS011;66633;47.628;19.158;2023-01-09T04:49:25;7.95;;;3.67;;
77520;SDS011;66633;47.628;19.158;2023-01-09T04:51:50;8.60;;;4.30;;
77520;SDS011;66633;47.628;19.158;2023-01-09T04:54:16;7.57;;;3.88;;
77520;SDS011;66633;47.628;19.158;2023-01-09T04:56:42;10.30;;;4.57;;
77520;SDS011;66633;47.628;19.158;2023-01-09T04:59:07;8.02;;;4.05;;
77520;SDS011;66633;47.628;19.158;2023-01-09T05:01:33;9.82;;;5.35;;
77520;SDS011;66633;47.628;19.158;2023-01-09T05:03:59;8.25;;;4.10;;
77520;SDS011;66633;47.628;19.158;2023-01-09T05:06:25;7.85;;;3.45;;
77520;SDS011;66633;47.628;19.158;2023-01-09T05:08:50;8.30;;;4.20;;
77520;SDS011;66633;47.628;19.158;2023-01-09T05:11:16;14.20;;;7.82;;
77520;SDS011;66633;47.628;19.158;2023-01-09T05:13:42;9.95;;;5.50;;
77520;SDS011;66633;47.628;19.158;2023-01-09T05:16:07;12.75;;;6.28;;
77520;SDS011;66633;47.628;19.158;2023-01-09T05:18:33;13.07;;;6.78;;
77520;SDS011;66633;47.628;19.158;2023-01-09T05:20:59;13.95;;;6.97;;
77520;SDS011;66633;47.628;19.158;2023-01-09T05:23:24;12.65;;;5.93;;
77520;SDS011;66633;47.628;19.158;2023-01-09T05:25:50;12.40;;;5.95;;
77520;SDS011;66633;47.628;19.158;2023-01-09T05:28:15;11.63;;;6.18;;
77520;SDS011;66633;47.628;19.158;2023-01-09T05:30:41;13.02;;;6.45;;
77520;SDS011;66633;47.628;19.158;2023-01-09T05:33:06;13.23;;;7.43;;
77520;SDS011;66633;47.628;19.158;2023-01-09T05:35:35;10.75;;;5.82;;
77520;SDS011;66633;47.628;19.158;2023-01-09T05:38:04;12.68;;;6.70;;
77520;SDS011;66633;47.628;19.158;2023-01-09T05:40:29;14.38;;;7.47;;
77520;SDS011;66633;47.628;19.158;2023-01-09T05:42:55;13.00;;;6.82;;
77520;SDS011;66633;47.628;19.158;2023-01-09T05:45:20;15.35;;;9.13;;
77520;SDS011;66633;47.628;19.158;2023-01-09T05:47:45;13.25;;;6.85;;
77520;SDS011;66633;47.628;19.158;2023-01-09T05:50:11;10.52;;;5.47;;
77520;SDS011;66633;47.628;19.158;2023-01-09T05:52:37;10.10;;;5.40;;
77520;SDS011;66633;47.628;19.158;2023-01-09T05:55:04;10.57;;;4.88;;
77520;SDS011;66633;47.628;19.158;2023-01-09T05:57:30;12.63;;;6.63;;
77520;SDS011;66633;47.628;19.158;2023-01-09T05:59:56;19.33;;;9.75;;
77520;SDS011;66633;47.628;19.158;2023-01-09T06:02:21;16.77;;;8.98;;
77520;SDS011;66633;47.628;19.158;2023-01-09T06:04:47;11.70;;;6.07;;
77520;SDS011;66633;47.628;19.158;2023-01-09T06:07:12;16.60;;;8.75;;
77520;SDS011;66633;47.628;19.158;2023-01-09T06:09:38;11.07;;;5.63;;
77520;SDS011;66633;47.628;19.158;2023-01-09T06:12:03;13.27;;;6.55;;
77520;SDS011;66633;47.628;19.158;2023-01-09T06:14:29;17.45;;;8.82;;
77520;SDS011;66633;47.628;19.158;2023-01-09T06:16:54;14.77;;;8.23;;
77520;SDS011;66633;47.628;19.158;2023-01-09T06:19:20;13.77;;;7.53;;
77520;SDS011;66633;47.628;19.158;2023-01-09T06:21:45;12.02;;;6.00;;
77520;SDS011;66633;47.628;19.158;2023-01-09T06:24:11;14.50;;;7.50;;
77520;SDS011;66633;47.628;19.158;2023-01-09T06:26:36;11.40;;;5.28;;
77520;SDS011;66633;47.628;19.158;2023-01-09T06:29:02;12.00;;;5.30;;
77520;SDS011;66633;47.628;19.158;2023-01-09T06:31:27;13.75;;;8.68;;
77520;SDS011;66633;47.628;19.158;2023-01-09T06:33:52;17.80;;;9.45;;
77520;SDS011;66633;47.628;19.158;2023-01-09T06:36:18;21.20;;;11.48;;
77520;SDS011;66633;47.628;19.158;2023-01-09T06:38:44;17.38;;;9.45;;
77520;SDS011;66633;47.628;19.158;2023-01-09T06:41:09;24.20;;;13.27;;
77520;SDS011;66633;47.628;19.158;2023-01-09T06:43:35;19.38;;;9.98;;
77520;SDS011;66633;47.628;19.158;2023-01-09T06:46:00;15.48;;;7.70;;
77520;SDS011;66633;47.628;19.158;2023-01-09T06:48:26;21.10;;;10.43;;
77520;SDS011;66633;47.628;19.158;2023-01-09T06:50:52;19.77;;;10.68;;
77520;SDS011;66633;47.628;19.158;2023-01-09T06:53:18;27.20;;;13.55;;
77520;SDS011;66633;47.628;19.158;2023-01-09T06:55:47;27.35;;;13.38;;
77520;SDS011;66633;47.628;19.158;2023-01-09T06:58:15;64.93;;;31.40;;
77520;SDS011;66633;47.628;19.158;2023-01-09T07:00:41;51.85;;;27.90;;
77520;SDS011;66633;47.628;19.158;2023-01-09T07:03:06;41.85;;;20.73;;
77520;SDS011;66633;47.628;19.158;2023-01-09T07:05:33;27.77;;;14.05;;
77520;SDS011;66633;47.628;19.158;2023-01-09T07:08:03;22.58;;;13.05;;
77520;SDS011;66633;47.628;19.158;2023-01-09T07:10:29;29.90;;;16.35;;
77520;SDS011;66633;47.628;19.158;2023-01-09T07:12:54;23.25;;;13.50;;
77520;SDS011;66633;47.628;19.158;2023-01-09T07:15:21;19.17;;;12.20;;
77520;SDS011;66633;47.628;19.158;2023-01-09T07:17:47;21.75;;;11.32;;
77520;SDS011;66633;47.628;19.158;2023-01-09T07:20:15;21.65;;;11.30;;
77520;SDS011;66633;47.628;19.158;2023-01-09T07:22:42;20.20;;;11.30;;
77520;SDS011;66633;47.628;19.158;2023-01-09T07:25:07;21.67;;;12.18;;
77520;SDS011;66633;47.628;19.158;2023-01-09T07:27:33;24.40;;;12.45;;
77520;SDS011;66633;47.628;19.158;2023-01-09T07:29:58;22.83;;;13.18;;
77520;SDS011;66633;47.628;19.158;2023-01-09T07:32:23;25.63;;;12.13;;
77520;SDS011;66633;47.628;19.158;2023-01-09T07:34:49;21.40;;;10.93;;
77520;SDS011;66633;47.628;19.158;2023-01-09T07:37:15;21.25;;;11.70;;
77520;SDS011;66633;47.628;19.158;2023-01-09T07:39:41;22.80;;;10.55;;
77520;SDS011;66633;47.628;19.158;2023-01-09T07:42:07;21.30;;;12.80;;
77520;SDS011;66633;47.628;19.158;2023-01-09T07:44:32;24.10;;;13.90;;
77520;SDS011;66633;47.628;19.158;2023-01-09T07:46:58;27.33;;;14.45;;
77520;SDS011;66633;47.628;19.158;2023-01-09T07:49:23;21.55;;;12.43;;
77520;SDS011;66633;47.628;19.158;2023-01-09T07:58:32;15.48;;;8.80;;
77520;SDS011;66633;47.628;19.158;2023-01-09T08:00:57;15.85;;;9.10;;
77520;SDS011;66633;47.628;19.158;2023-01-09T08:03:23;20.00;;;11.40;;
77520;SDS011;66633;47.628;19.158;2023-01-09T08:05:50;17.60;;;10.45;;
77520;SDS011;66633;47.628;19.158;2023-01-09T08:08:15;16.58;;;9.35;;
77520;SDS011;66633;47.628;19.158;2023-01-09T08:10:40;19.42;;;10.55;;
77520;SDS011;66633;47.628;19.158;2023-01-09T08:13:06;23.98;;;13.07;;
77520;SDS011;66633;47.628;19.158;2023-01-09T08:15:32;19.08;;;10.82;;
77520;SDS011;66633;47.628;19.158;2023-01-09T08:17:57;20.25;;;10.90;;
77520;SDS011;66633;47.628;19.158;2023-01-09T08:20:23;19.65;;;11.68;;
77520;SDS011;66633;47.628;19.158;2023-01-09T08:22:48;17.58;;;10.02;;
77520;SDS011;66633;47.628;19.158;2023-01-09T08:25:14;20.08;;;11.63;;
77520;SDS011;66633;47.628;19.158;2023-01-09T08:27:40;34.70;;;17.10;;
77520;SDS011;66633;47.628;19.158;2023-01-09T08:30:06;32.92;;;18.27;;
77520;SDS011;66633;47.628;19.158;2023-01-09T08:32:33;22.85;;;12.25;;
77520;SDS011;66633;47.628;19.158;2023-01-09T08:34:59;21.33;;;10.55;;
77520;SDS011;66633;47.628;19.158;2023-01-09T08:37:25;15.90;;;9.77;;
77520;SDS011;66633;47.628;19.158;2023-01-09T08:39:50;17.60;;;8.60;;
77520;SDS011;66633;47.628;19.158;2023-01-09T08:42:17;17.15;;;9.52;;
77520;SDS011;66633;47.628;19.158;2023-01-09T08:45:01;18.58;;;9.68;;
77520;SDS011;66633;47.628;19.158;2023-01-09T08:47:45;18.17;;;10.60;;
77520;SDS011;66633;47.628;19.158;2023-01-09T08:50:10;16.88;;;9.48;;
77520;SDS011;66633;47.628;19.158;2023-01-09T08:52:37;16.48;;;9.60;;
77520;SDS011;66633;47.628;19.158;2023-01-09T08:55:02;18.60;;;9.85;;
77520;SDS011;66633;47.628;19.158;2023-01-09T08:57:28;19.80;;;11.52;;
77520;SDS011;66633;47.628;19.158;2023-01-09T08:59:53;19.23;;;10.35;;
77520;SDS011;66633;47.628;19.158;2023-01-09T09:02:19;18.98;;;10.35;;
77520;SDS011;66633;47.628;19.158;2023-01-09T09:04:44;22.60;;;11.35;;
77520;SDS011;66633;47.628;19.158;2023-01-09T09:07:11;22.67;;;11.18;;
77520;SDS011;66633;47.628;19.158;2023-01-09T09:09:36;23.33;;;12.07;;
77520;SDS011;66633;47.628;19.158;2023-01-09T09:12:02;21.70;;;11.65;;
77520;SDS011;66633;47.628;19.158;2023-01-09T09:14:27;23.15;;;12.27;;
77520;SDS011;66633;47.628;19.158;2023-01-09T09:17:11;19.02;;;10.35;;
77520;SDS011;66633;47.628;19.158;2023-01-09T09:19:36;19.02;;;10.55;;
77520;SDS011;66633;47.628;19.158;2023-01-09T09:22:03;22.60;;;13.38;;
77520;SDS011;66633;47.628;19.158;2023-01-09T09:24:29;23.60;;;12.23;;
77520;SDS011;66633;47.628;19.158;2023-01-09T09:26:54;26.00;;;13.80;;
77520;SDS011;66633;47.628;19.158;2023-01-09T09:29:19;22.38;;;11.63;;
77520;SDS011;66633;47.628;19.158;2023-01-09T09:31:45;26.75;;;12.30;;
77520;SDS011;66633;47.628;19.158;2023-01-09T09:34:10;21.85;;;12.07;;
77520;SDS011;66633;47.628;19.158;2023-01-09T09:36:37;19.13;;;10.95;;
77520;SDS011;66633;47.628;19.158;2023-01-09T09:39:02;24.20;;;13.45;;
77520;SDS011;66633;47.628;19.158;2023-01-09T09:49:52;22.50;;;11.75;;
77520;SDS011;66633;47.628;19.158;2023-01-09T09:55:17;21.90;;;12.48;;
77520;SDS011;66633;47.628;19.158;2023-01-09T09:57:47;20.30;;;12.77;;
77520;SDS011;66633;47.628;19.158;2023-01-09T10:00:19;23.48;;;14.70;;
77520;SDS011;66633;47.628;19.158;2023-01-09T10:03:00;23.63;;;12.57;;
77520;SDS011;66633;47.628;19.158;2023-01-09T10:07:56;22.97;;;12.00;;
77520;SDS011;66633;47.628;19.158;2023-01-09T10:10:30;18.75;;;11.18;;
77520;SDS011;66633;47.628;19.158;2023-01-09T10:13:01;19.45;;;10.98;;
77520;SDS011;66633;47.628;19.158;2023-01-09T10:15:58;20.83;;;11.52;;
77520;SDS011;66633;47.628;19.158;2023-01-09T10:21:41;20.23;;;11.52;;
77520;SDS011;66633;47.628;19.158;2023-01-09T10:30:30;18.73;;;11.82;;
77520;SDS011;66633;47.628;19.158;2023-01-09T10:38:41;27.42;;;15.45;;
77520;SDS011;66633;47.628;19.158;2023-01-09T10:41:28;21.50;;;13.55;;
77520;SDS011;66633;47.628;19.158;2023-01-09T10:44:17;26.00;;;14.57;;
77520;SDS011;66633;47.628;19.158;2023-01-09T10:46:50;23.63;;;12.75;;
77520;SDS011;66633;47.628;19.158;2023-01-09T10:51:47;30.95;;;17.70;;
77520;SDS011;66633;47.628;19.158;2023-01-09T10:54:18;27.48;;;15.60;;
77520;SDS011;66633;47.628;19.158;2023-01-09T10:57:03;29.83;;;17.45;;
77520;SDS011;66633;47.628;19.158;2023-01-09T10:59:37;22.73;;;12.88;;
77520;SDS011;66633;47.628;19.158;2023-01-09T11:02:03;23.00;;;13.43;;
77520;SDS011;66633;47.628;19.158;2023-01-09T11:04:31;18.80;;;10.85;;
77520;SDS011;66633;47.628;19.158;2023-01-09T11:07:46;25.55;;;14.32;;
77520;SDS011;66633;47.628;19.158;2023-01-09T11:10:01;20.90;;;11.00;;
77520;SDS011;66633;47.628;19.158;2023-01-09T11:12:30;25.02;;;14.88;;
77520;SDS011;66633;47.628;19.158;2023-01-09T11:17:41;22.27;;;13.85;;
77520;SDS011;66633;47.628;19.158;2023-01-09T11:22:58;25.25;;;13.90;;
77520;SDS011;66633;47.628;19.158;2023-01-09T11:25:24;22.73;;;12.48;;
77520;SDS011;66633;47.628;19.158;2023-01-09T11:30:27;29.65;;;15.52;;
77520;SDS011;66633;47.628;19.158;2023-01-09T11:32:58;29.20;;;15.32;;
77520;SDS011;66633;47.628;19.158;2023-01-09T11:35:31;26.85;;;14.70;;
77520;SDS011;66633;47.628;19.158;2023-01-09T11:38:10;25.73;;;13.68;;
77520;SDS011;66633;47.628;19.158;2023-01-09T11:40:43;32.58;;;16.63;;
77520;SDS011;66633;47.628;19.158;2023-01-09T11:43:15;27.70;;;14.65;;
77520;SDS011;66633;47.628;19.158;2023-01-09T11:45:46;26.58;;;13.73;;
77520;SDS011;66633;47.628;19.158;2023-01-09T11:48:17;27.98;;;15.07;;
77520;SDS011;66633;47.628;19.158;2023-01-09T11:50:55;24.00;;;13.65;;
77520;SDS011;66633;47.628;19.158;2023-01-09T11:53:22;27.55;;;14.40;;
77520;SDS011;66633;47.628;19.158;2023-01-09T11:56:00;26.67;;;15.07;;
77520;SDS011;66633;47.628;19.158;2023-01-09T11:58:31;28.05;;;15.60;;
77520;SDS011;66633;47.628;19.158;2023-01-09T12:01:04;24.20;;;13.88;;
77520;SDS011;66633;47.628;19.158;2023-01-09T12:06:31;58.92;;;27.52;;
77520;SDS011;66633;47.628;19.158;2023-01-09T12:12:33;45.10;;;19.73;;
77520;SDS011;66633;47.628;19.158;2023-01-09T12:29:01;52.05;;;29.00;;
77520;SDS011;66633;47.628;19.158;2023-01-09T12:31:46;100.15;;;41.78;;
77520;SDS011;66633;47.628;19.158;2023-01-09T12:34:46;117.85;;;48.75;;
77520;SDS011;66633;47.628;19.158;2023-01-09T12:37:33;81.20;;;34.97;;
77520;SDS011;66633;47.628;19.158;2023-01-09T12:40:22;86.75;;;30.77;;
77520;SDS011;66633;47.628;19.158;2023-01-09T12:43:14;120.50;;;45.92;;
77520;SDS011;66633;47.628;19.158;2023-01-09T12:53:43;46.60;;;25.80;;
77520;SDS011;66633;47.628;19.158;2023-01-09T12:56:20;40.22;;;24.10;;
77520;SDS011;66633;47.628;19.158;2023-01-09T12:58:55;41.65;;;23.90;;
77520;SDS011;66633;47.628;19.158;2023-01-09T13:01:26;36.90;;;20.15;;
77520;SDS011;66633;47.628;19.158;2023-01-09T13:06:34;27.02;;;16.35;;
77520;SDS011;66633;47.628;19.158;2023-01-09T13:09:25;48.05;;;26.90;;
77520;SDS011;66633;47.628;19.158;2023-01-09T13:12:16;42.00;;;23.38;;
77520;SDS011;66633;47.628;19.158;2023-01-09T13:17:40;42.05;;;24.08;;
77520;SDS011;66633;47.628;19.158;2023-01-09T13:22:55;35.35;;;18.92;;
77520;SDS011;66633;47.628;19.158;2023-01-09T13:25:34;30.58;;;18.27;;
77520;SDS011;66633;47.628;19.158;2023-01-09T13:28:07;21.30;;;11.40;;
77520;SDS011;66633;47.628;19.158;2023-01-09T13:33:33;31.10;;;16.15;;
77520;SDS011;66633;47.628;19.158;2023-01-09T13:36:02;29.17;;;15.38;;
77520;SDS011;66633;47.628;19.158;2023-01-09T13:38:29;25.45;;;14.15;;
77520;SDS011;66633;47.628;19.158;2023-01-09T13:41:05;39.40;;;24.17;;
77520;SDS011;66633;47.628;19.158;2023-01-09T13:46:43;32.47;;;18.50;;
77520;SDS011;66633;47.628;19.158;2023-01-09T13:51:55;36.70;;;20.33;;
77520;SDS011;66633;47.628;19.158;2023-01-09T13:55:00;20.60;;;11.88;;
77520;SDS011;66633;47.628;19.158;2023-01-09T13:59:46;22.95;;;14.00;;
77520;SDS011;66633;47.628;19.158;2023-01-09T14:05:00;26.77;;;14.77;;
77520;SDS011;66633;47.628;19.158;2023-01-09T14:07:29;30.58;;;17.38;;
77520;SDS011;66633;47.628;19.158;2023-01-09T14:12:50;25.98;;;15.70;;
77520;SDS011;66633;47.628;19.158;2023-01-09T14:15:25;32.47;;;18.58;;
77520;SDS011;66633;47.628;19.158;2023-01-09T14:18:00;37.63;;;20.27;;
77520;SDS011;66633;47.628;19.158;2023-01-09T14:20:29;52.55;;;29.08;;
77520;SDS011;66633;47.628;19.158;2023-01-09T14:23:16;40.63;;;21.98;;
77520;SDS011;66633;47.628;19.158;2023-01-09T14:25:47;48.60;;;28.75;;
77520;SDS011;66633;47.628;19.158;2023-01-09T14:28:21;52.63;;;30.52;;
77520;SDS011;66633;47.628;19.158;2023-01-09T14:46:51;73.10;;;33.17;;
77520;SDS011;66633;47.628;19.158;2023-01-09T14:49:26;164.23;;;78.25;;
77520;SDS011;66633;47.628;19.158;2023-01-09T14:54:53;72.75;;;37.88;;
77520;SDS011;66633;47.628;19.158;2023-01-09T14:57:29;38.80;;;22.17;;
77520;SDS011;66633;47.628;19.158;2023-01-09T15:00:31;35.17;;;19.65;;
77520;SDS011;66633;47.628;19.158;2023-01-09T15:02:49;50.00;;;22.83;;
77520;SDS011;66633;47.628;19.158;2023-01-09T15:05:18;36.55;;;19.27;;
77520;SDS011;66633;47.628;19.158;2023-01-09T15:07:50;47.15;;;27.13;;
77520;SDS011;66633;47.628;19.158;2023-01-09T15:10:27;40.25;;;22.60;;
77520;SDS011;66633;47.628;19.158;2023-01-09T15:12:56;45.95;;;25.35;;
77520;SDS011;66633;47.628;19.158;2023-01-09T15:15:23;44.22;;;24.58;;
77520;SDS011;66633;47.628;19.158;2023-01-09T15:17:52;44.80;;;23.55;;
77520;SDS011;66633;47.628;19.158;2023-01-09T15:20:28;35.53;;;17.75;;
77520;SDS011;66633;47.628;19.158;2023-01-09T15:22:56;47.80;;;25.42;;
77520;SDS011;66633;47.628;19.158;2023-01-09T15:27:53;44.50;;;24.80;;
77520;SDS011;66633;47.628;19.158;2023-01-09T15:32:50;57.08;;;32.20;;
77520;SDS011;66633;47.628;19.158;2023-01-09T15:35:16;44.92;;;27.05;;
77520;SDS011;66633;47.628;19.158;2023-01-09T15:37:43;49.13;;;27.00;;
77520;SDS011;66633;47.628;19.158;2023-01-09T15:40:17;76.53;;;37.78;;
77520;SDS011;66633;47.628;19.158;2023-01-09T15:42:50;85.05;;;43.45;;
77520;SDS011;66633;47.628;19.158;2023-01-09T15:45:41;83.70;;;40.35;;
77520;SDS011;66633;47.628;19.158;2023-01-09T15:48:22;83.03;;;40.20;;
77520;SDS011;66633;47.628;19.158;2023-01-09T15:50:51;102.90;;;44.58;;
77520;SDS011;66633;47.628;19.158;2023-01-09T15:53:20;116.10;;;52.75;;
77520;SDS011;66633;47.628;19.158;2023-01-09T15:58:39;72.97;;;36.50;;
77520;SDS011;66633;47.628;19.158;2023-01-09T16:03:48;61.97;;;35.38;;
77520;SDS011;66633;47.628;19.158;2023-01-09T16:06:27;51.05;;;28.27;;
77520;SDS011;66633;47.628;19.158;2023-01-09T16:08:55;59.05;;;30.88;;
77520;SDS011;66633;47.628;19.158;2023-01-09T16:11:30;44.90;;;25.15;;
77520;SDS011;66633;47.628;19.158;2023-01-09T16:13:59;37.38;;;19.25;;
77520;SDS011;66633;47.628;19.158;2023-01-09T16:16:36;44.85;;;22.92;;
77520;SDS011;66633;47.628;19.158;2023-01-09T16:19:02;38.00;;;20.38;;
77520;SDS011;66633;47.628;19.158;2023-01-09T16:21:32;28.75;;;13.88;;
77520;SDS011;66633;47.628;19.158;2023-01-09T16:24:17;41.33;;;20.50;;
77520;SDS011;66633;47.628;19.158;2023-01-09T16:26:50;34.92;;;17.38;;
77520;SDS011;66633;47.628;19.158;2023-01-09T16:29:36;37.47;;;16.90;;
77520;SDS011;66633;47.628;19.158;2023-01-09T16:35:24;32.83;;;14.48;;
77520;SDS011;66633;47.628;19.158;2023-01-09T16:37:50;44.97;;;21.15;;
77520;SDS011;66633;47.628;19.158;2023-01-09T16:42:41;44.47;;;21.10;;
77520;SDS011;66633;47.628;19.158;2023-01-09T16:45:26;45.28;;;23.13;;
77520;SDS011;66633;47.628;19.158;2023-01-09T16:47:53;38.00;;;20.02;;
77520;SDS011;66633;47.628;19.158;2023-01-09T16:50:19;39.90;;;22.60;;
77520;SDS011;66633;47.628;19.158;2023-01-09T16:52:45;40.08;;;20.35;;
77520;SDS011;66633;47.628;19.158;2023-01-09T16:55:11;50.58;;;26.13;;
77520;SDS011;66633;47.628;19.158;2023-01-09T16:57:36;37.45;;;20.75;;
77520;SDS011;66633;47.628;19.158;2023-01-09T17:00:03;42.60;;;21.88;;
77520;SDS011;66633;47.628;19.158;2023-01-09T17:05:13;36.30;;;19.65;;
77520;SDS011;66633;47.628;19.158;2023-01-09T17:07:38;40.35;;;20.95;;
77520;SDS011;66633;47.628;19.158;2023-01-09T17:10:04;38.40;;;20.45;;
77520;SDS011;66633;47.628;19.158;2023-01-09T17:12:30;28.38;;;15.55;;
77520;SDS011;66633;47.628;19.158;2023-01-09T17:14:56;32.17;;;16.52;;
77520;SDS011;66633;47.628;19.158;2023-01-09T17:17:21;39.90;;;20.58;;
77520;SDS011;66633;47.628;19.158;2023-01-09T17:19:47;33.55;;;16.85;;